Time;durP1;ratioP1;P1;durP2;ratioP2;P2;SDS_P1;SDS_P2;PMS_P1;PMS_P2;Temp;Humidity;BMP_temperature;BMP_pressure;BME280_temperature;BME280_humidity;BME280_pressure;Samples;Min_cycle;Max_cycle;Signal;HPM_P1;HPM_P2
2022/04/25 00:01:54;;;;;;;;;;;;;;;13.70;60.92;98448.63;5341414;26;35010;-90
2022/04/25 00:04:24;;;;;;;;;;;;;;;13.70;60.61;98446.87;5337630;26;35160;-91
2022/04/25 00:07:00;;;;;;;;;;;;;;;13.35;61.65;98445.84;5336834;26;34074;-90
2022/04/25 00:09:28;;;;;;;;;;;;;;;13.44;61.32;98441.06;5329941;26;33597;-91
2022/04/25 00:11:57;;;;;;;;;;;;;;;13.32;61.66;98449.44;5330914;26;33945;-92
2022/04/25 00:14:25;;;;;;;;;;;;;;;13.19;61.90;98451.72;5343375;26;34016;-92
2022/04/25 00:16:56;;;;;;;;;;;;;;;12.98;62.86;98450.88;5335474;26;33278;-93
2022/04/25 00:19:26;;;;;;;;;;;;;;;12.86;63.45;98440.16;5339501;26;33786;-90
2022/04/25 00:21:58;;;;;;;;;;;;;;;12.84;63.30;98447.16;5335544;26;34156;-90
2022/04/25 00:24:31;;;;;;;;;;;;;;;12.92;63.17;98443.31;5337163;26;34040;-90
2022/04/25 00:27:00;;;;;;;;;;;;;;;12.89;62.96;98432.19;5337588;26;34262;-90
2022/04/25 00:29:29;;;;;;;;;;;;;;;12.85;63.26;98428.03;5341262;26;33983;-92
2022/04/25 00:31:57;;;;;;;;;;;;;;;13.02;62.75;98435.94;5336283;26;35596;-91
2022/04/25 00:34:32;;;;;;;;;;;;;;;12.90;63.23;98429.53;5336831;26;34338;-90
2022/04/25 00:37:04;;;;;;;;;;;;;;;12.76;63.41;98426.69;5338825;26;33778;-91
2022/04/25 00:39:35;;;;;;;;;;;;;;;12.90;62.92;98433.88;5335437;26;33278;-91
2022/04/25 00:42:03;;;;;;;;;;;;;;;12.71;63.41;98428.59;5342446;26;34342;-91
2022/04/25 00:44:32;;;;;;;;;;;;;;;12.79;63.13;98435.19;5337174;26;33106;-93
2022/04/25 00:47:01;;;;;;;;;;;;;;;12.82;63.08;98427.25;5336426;26;33936;-91
2022/04/25 00:49:31;;;;;;;;;;;;;;;12.67;63.73;98433.09;5336429;26;32843;-93
2022/04/25 00:52:00;;;;;;;;;;;;;;;12.66;64.07;98427.94;5336856;26;33768;-90
2022/04/25 00:54:28;;;;;;;;;;;;;;;12.80;63.53;98431.66;5337642;26;34071;-93
2022/04/25 00:56:57;;;;;;;;;;;;;;;12.80;63.49;98428.22;5343009;26;34753;-91
2022/04/25 00:59:26;;;;;;;;;;;;;;;12.68;64.07;98429.56;5336885;26;33819;-90
2022/04/25 01:01:54;;;;;;;;;;;;;;;12.70;64.20;98434.72;5334158;26;33904;-92
2022/04/25 01:04:23;;;;;;;;;;;;;;;12.76;64.00;98444.88;5337293;26;34226;-90
2022/04/25 01:06:53;;;;;;;;;;;;;;;12.87;63.65;98441.81;5336921;26;34054;-91
2022/04/25 01:09:21;;;;;;;;;;;;;;;12.92;63.66;98450.28;5343103;26;33724;-90
2022/04/25 01:11:50;;;;;;;;;;;;;;;12.90;63.87;98450.38;5335860;26;34267;-90
2022/04/25 01:14:20;;;;;;;;;;;;;;;12.95;63.60;98443.19;5334141;26;33294;-91
2022/04/25 01:16:49;;;;;;;;;;;;;;;12.89;63.83;98445.22;5333843;26;33318;-90
2022/04/25 01:19:17;;;;;;;;;;;;;;;12.89;64.17;98437.41;5337250;26;33450;-90
2022/04/25 01:21:49;;;;;;;;;;;;;;;13.01;63.71;98444.69;5342259;26;34864;-90
2022/04/25 01:27:17;;;;;;;;;;;;;;;13.39;60.66;98448.25;5336799;26;33873;-91
2022/04/25 01:29:46;;;;;;;;;;;;;;;13.48;59.53;98449.56;5336372;26;33776;-91
2022/04/25 01:32:17;;;;;;;;;;;;;;;13.62;59.23;98446.34;5336116;26;32841;-93
2022/04/25 01:34:46;;;;;;;;;;;;;;;13.58;58.75;98443.06;5337653;26;34766;-92
2022/04/25 01:37:16;;;;;;;;;;;;;;;13.51;59.09;98441.66;5342714;26;33594;-90
2022/04/25 01:39:46;;;;;;;;;;;;;;;13.78;58.02;98439.53;5332741;26;33239;-90
2022/04/25 01:42:15;;;;;;;;;;;;;;;13.95;57.35;98440.53;5336553;26;33837;-90
2022/04/25 01:44:44;;;;;;;;;;;;;;;14.04;57.15;98430.50;5336837;26;34225;-90
2022/04/25 01:47:12;;;;;;;;;;;;;;;14.09;55.83;98432.91;5335730;26;33923;-90
2022/04/25 01:49:48;;;;;;;;;;;;;;;14.21;55.98;98436.69;5337434;26;31786;-92
2022/04/25 01:52:22;;;;;;;;;;;;;;;14.19;56.66;98433.28;5342066;26;34884;-94
2022/04/25 01:54:52;;;;;;;;;;;;;;;14.22;56.12;98438.34;5337398;26;35184;-90
2022/04/25 01:57:23;;;;;;;;;;;;;;;14.25;55.52;98439.03;5337203;26;34139;-91
2022/04/25 01:59:52;;;;;;;;;;;;;;;14.12;56.03;98437.13;5336937;26;33191;-91
2022/04/25 02:02:23;;;;;;;;;;;;;;;13.93;56.63;98440.59;5336590;26;34047;-95
2022/04/25 02:04:52;;;;;;;;;;;;;;;14.12;56.95;98434.50;5339586;26;33878;-91
2022/04/25 02:07:21;;;;;;;;;;;;;;;14.18;57.82;98432.47;5332649;26;34025;-91
2022/04/25 02:09:49;;;;;;;;;;;;;;;14.19;58.33;98428.91;5330923;26;33126;-91
2022/04/25 02:12:20;;;;;;;;;;;;;;;14.19;58.40;98431.53;5331055;26;34591;-91
2022/04/25 02:14:49;;;;;;;;;;;;;;;13.98;58.92;98429.94;5335126;26;34171;-91
2022/04/25 02:17:17;;;;;;;;;;;;;;;14.08;57.99;98420.75;5337700;26;34116;-90
2022/04/25 02:19:48;;;;;;;;;;;;;;;14.04;58.26;98414.00;5342132;26;33459;-90
2022/04/25 02:22:17;;;;;;;;;;;;;;;14.01;58.27;98416.75;5336775;26;33908;-90
2022/04/25 02:24:46;;;;;;;;;;;;;;;14.06;57.10;98428.66;5335532;26;34874;-90
2022/04/25 02:27:14;;;;;;;;;;;;;;;13.92;57.15;98419.78;5334953;26;34887;-93
2022/04/25 02:29:53;;;;;;;;;;;;;;;14.13;56.40;98423.97;5335729;26;32932;-91
2022/04/25 02:32:22;;;;;;;;;;;;;;;14.11;56.39;98423.25;5340951;26;33636;-90
2022/04/25 02:34:52;;;;;;;;;;;;;;;13.98;56.89;98433.38;5336165;26;33955;-90
2022/04/25 02:37:20;;;;;;;;;;;;;;;14.16;56.48;98436.03;5337286;26;34229;-92
2022/04/25 02:39:52;;;;;;;;;;;;;;;14.09;56.87;98443.31;5337770;26;33771;-93
2022/04/25 02:42:20;;;;;;;;;;;;;;;14.12;56.63;98450.16;5337210;26;34956;-93
2022/04/25 02:44:51;;;;;;;;;;;;;;;14.03;56.54;98449.66;5342613;26;34726;-92
2022/04/25 02:47:19;;;;;;;;;;;;;;;13.76;57.16;98448.34;5343128;26;34607;-90
2022/04/25 02:49:48;;;;;;;;;;;;;;;13.94;56.70;98451.84;5339176;26;34009;-92
2022/04/25 02:52:16;;;;;;;;;;;;;;;13.90;56.03;98455.53;5337353;26;34059;-91
2022/04/25 02:54:45;;;;;;;;;;;;;;;13.79;56.53;98463.84;5337573;26;34852;-93
2022/04/25 02:57:13;;;;;;;;;;;;;;;13.72;56.83;98480.66;5338535;26;33802;-91
2022/04/25 02:59:42;;;;;;;;;;;;;;;13.92;56.11;98485.84;5343187;26;33720;-90
2022/04/25 03:02:12;;;;;;;;;;;;;;;13.84;56.02;98486.19;5334869;26;34102;-92
2022/04/25 03:04:41;;;;;;;;;;;;;;;13.68;56.54;98487.78;5337054;26;34144;-90
2022/04/25 03:07:09;;;;;;;;;;;;;;;13.66;56.78;98492.22;5340290;26;34115;-91
2022/04/25 03:09:38;;;;;;;;;;;;;;;13.76;56.50;98495.25;5337385;26;33572;-90
2022/04/25 03:12:18;;;;;;;;;;;;;;;13.93;54.82;98507.53;5343299;26;34423;-89
2022/04/25 03:14:47;;;;;;;;;;;;;;;13.92;55.51;98501.47;5335759;26;35565;-90
2022/04/25 03:17:17;;;;;;;;;;;;;;;13.96;55.62;98503.00;5337631;26;34068;-91
2022/04/25 03:19:45;;;;;;;;;;;;;;;13.99;55.20;98505.50;5337650;26;33436;-93
2022/04/25 03:22:14;;;;;;;;;;;;;;;13.89;55.45;98506.81;5337210;26;34135;-90
2022/04/25 03:24:47;;;;;;;;;;;;;;;13.93;55.75;98510.97;5340270;26;34338;-90
2022/04/25 03:27:15;;;;;;;;;;;;;;;13.96;55.09;98507.37;5343558;26;34127;-90
2022/04/25 03:29:44;;;;;;;;;;;;;;;13.80;56.47;98500.28;5336316;26;33045;-90
2022/04/25 03:32:15;;;;;;;;;;;;;;;13.89;56.84;98506.81;5333243;26;35154;-90
2022/04/25 03:34:45;;;;;;;;;;;;;;;13.88;57.26;98500.75;5336015;26;33743;-90
2022/04/25 03:37:14;;;;;;;;;;;;;;;13.87;58.01;98500.84;5336687;26;34738;-91
2022/04/25 03:39:45;;;;;;;;;;;;;;;13.86;57.54;98504.34;5342830;26;34237;-93
2022/04/25 03:42:18;;;;;;;;;;;;;;;13.81;58.31;98509.75;5336063;26;34813;-90
2022/04/25 03:44:47;;;;;;;;;;;;;;;13.73;59.03;98511.88;5337119;26;33514;-90
2022/04/25 03:47:16;;;;;;;;;;;;;;;13.82;58.26;98508.88;5336700;26;34758;-91
2022/04/25 03:49:46;;;;;;;;;;;;;;;13.85;58.05;98507.87;5337512;26;32962;-90
2022/04/25 03:52:15;;;;;;;;;;;;;;;13.79;57.95;98493.34;5341895;26;34981;-90
2022/04/25 03:57:32;;;;;;;;;;;;;;;13.86;57.50;98493.91;5337037;26;34177;-91
2022/04/25 04:00:01;;;;;;;;;;;;;;;13.67;57.49;98499.13;5338150;26;33675;-93
2022/04/25 04:02:39;;;;;;;;;;;;;;;13.86;57.16;98493.91;5335775;26;33467;-91
2022/04/25 04:05:09;;;;;;;;;;;;;;;13.88;56.98;98495.53;5337221;26;34454;-91
2022/04/25 04:07:40;;;;;;;;;;;;;;;13.75;57.63;98504.84;5340885;26;33339;-90
2022/04/25 04:10:09;;;;;;;;;;;;;;;13.88;57.37;98505.13;5343288;26;33836;-90
2022/04/25 04:12:38;;;;;;;;;;;;;;;13.69;57.85;98509.47;5336714;26;34109;-91
2022/04/25 04:15:07;;;;;;;;;;;;;;;13.70;57.71;98516.38;5336972;26;34972;-90
2022/04/25 04:17:35;;;;;;;;;;;;;;;13.67;58.02;98525.19;5337127;26;33833;-90
2022/04/25 04:20:08;;;;;;;;;;;;;;;13.69;58.26;98517.31;5336355;26;32806;-90
2022/04/25 04:22:38;;;;;;;;;;;;;;;13.63;58.59;98524.47;5342357;26;33764;-90
2022/04/25 04:25:08;;;;;;;;;;;;;;;13.78;57.71;98527.31;5336498;26;34815;-90
2022/04/25 04:27:37;;;;;;;;;;;;;;;13.80;57.80;98530.72;5337112;26;34849;-93
2022/04/25 04:30:07;;;;;;;;;;;;;;;13.85;57.11;98526.12;5335735;26;33595;-93
2022/04/25 04:32:35;;;;;;;;;;;;;;;13.75;57.99;98532.66;5335628;26;33476;-93
2022/04/25 04:35:06;;;;;;;;;;;;;;;13.92;57.36;98518.84;5342425;26;33969;-90
2022/04/25 04:37:34;;;;;;;;;;;;;;;13.62;58.68;98522.78;5335577;26;34423;-92
2022/04/25 04:42:51;;;;;;;;;;;;;;;13.92;58.49;98535.38;5336780;26;33927;-90
2022/04/25 04:45:20;;;;;;;;;;;;;;;13.88;58.46;98536.41;5335226;26;34280;-89
2022/04/25 04:47:49;;;;;;;;;;;;;;;14.01;57.70;98534.09;5337187;26;33671;-91
2022/04/25 04:50:17;;;;;;;;;;;;;;;14.04;57.00;98537.41;5342146;26;33454;-91
2022/04/25 04:52:47;;;;;;;;;;;;;;;14.09;57.45;98535.44;5335407;26;34132;-94
2022/04/25 04:55:16;;;;;;;;;;;;;;;13.95;58.76;98535.22;5335087;26;33930;-92
2022/04/25 04:57:45;;;;;;;;;;;;;;;14.25;57.84;98542.53;5336729;26;33845;-93
2022/04/25 05:00:14;;;;;;;;;;;;;;;14.29;57.65;98541.50;5336224;26;33672;-91
2022/04/25 05:02:43;;;;;;;;;;;;;;;14.15;58.17;98543.91;5342570;26;33798;-90
2022/04/25 05:05:12;;;;;;;;;;;;;;;14.27;58.25;98551.16;5335250;26;34066;-89
2022/04/25 05:07:41;;;;;;;;;;;;;;;14.49;56.77;98540.53;5336400;26;33885;-92
2022/04/25 05:10:11;;;;;;;;;;;;;;;14.40;56.69;98551.41;5337126;26;33398;-92
2022/04/25 05:12:45;;;;;;;;;;;;;;;14.38;56.32;98546.28;5336181;26;34624;-91
2022/04/25 05:15:15;;;;;;;;;;;;;;;14.39;56.27;98550.56;5336682;26;34238;-91
2022/04/25 05:17:44;;;;;;;;;;;;;;;14.32;56.86;98559.59;5342836;26;33698;-90
2022/04/25 05:20:12;;;;;;;;;;;;;;;14.47;56.70;98563.25;5337286;26;33430;-90
2022/04/25 05:22:44;;;;;;;;;;;;;;;14.52;56.23;98558.66;5337120;26;33793;-92
2022/04/25 05:25:15;;;;;;;;;;;;;;;14.45;56.27;98557.28;5334749;26;34094;-93
2022/04/25 05:27:45;;;;;;;;;;;;;;;14.55;56.18;98558.56;5335667;26;34162;-91
2022/04/25 05:30:14;;;;;;;;;;;;;;;14.63;55.69;98556.44;5341424;26;33081;-91
2022/04/25 05:32:43;;;;;;;;;;;;;;;14.60;55.93;98553.97;5336457;26;33627;-89
2022/04/25 05:35:12;;;;;;;;;;;;;;;14.44;56.66;98564.25;5337061;26;33699;-92
2022/04/25 05:37:41;;;;;;;;;;;;;;;14.48;56.56;98555.38;5335899;26;33750;-91
2022/04/25 05:40:09;;;;;;;;;;;;;;;14.37;56.73;98555.00;5334933;26;33381;-91
2022/04/25 05:42:38;;;;;;;;;;;;;;;14.47;56.77;98555.44;5342316;26;34601;-89
2022/04/25 05:45:09;;;;;;;;;;;;;;;14.34;57.14;98554.31;5336714;26;33944;-90
2022/04/25 05:47:37;;;;;;;;;;;;;;;14.44;56.98;98553.81;5336249;26;33981;-91
2022/04/25 05:52:59;;;;;;;;;;;;;;;14.37;56.97;98568.06;5288941;27;33892;-88
2022/04/25 05:55:28;;;;;;;;;;;;;;;14.63;56.52;98571.25;5290233;27;34161;-89
2022/04/25 05:57:57;;;;;;;;;;;;;;;14.89;55.17;98567.37;5294224;27;34314;-93
2022/04/25 06:00:28;;;;;;;;;;;;;;;14.59;56.42;98565.31;5289051;27;33439;-91
2022/04/25 06:02:57;;;;;;;;;;;;;;;14.68;56.26;98562.28;5290799;27;33439;-88
2022/04/25 06:05:25;;;;;;;;;;;;;;;14.69;56.05;98563.97;5287788;27;34660;-89
2022/04/25 06:07:57;;;;;;;;;;;;;;;14.78;55.72;98560.06;5288253;27;34594;-90
2022/04/25 06:10:26;;;;;;;;;;;;;;;14.72;56.34;98569.03;5289186;27;33306;-89
2022/04/25 06:12:54;;;;;;;;;;;;;;;14.81;56.12;98575.59;5296107;27;34961;-89
2022/04/25 06:15:25;;;;;;;;;;;;;;;14.82;55.81;98566.84;5292345;27;34279;-89
2022/04/25 06:17:55;;;;;;;;;;;;;;;15.04;55.26;98568.41;5289377;27;33664;-92
2022/04/25 06:20:25;;;;;;;;;;;;;;;15.00;55.92;98566.84;5290169;27;32638;-93
2022/04/25 06:22:54;;;;;;;;;;;;;;;15.19;54.37;98572.00;5289801;27;34331;-90
2022/04/25 06:25:23;;;;;;;;;;;;;;;15.18;53.93;98565.12;5293630;27;34606;-89
2022/04/25 06:27:52;;;;;;;;;;;;;;;15.21;54.55;98573.63;5289279;27;33952;-91
2022/04/25 06:30:23;;;;;;;;;;;;;;;15.16;54.75;98573.00;5323769;26;32922;-88
2022/04/25 06:32:52;;;;;;;;;;;;;;;15.08;54.86;98562.13;5336475;26;34218;-91
2022/04/25 06:35:22;;;;;;;;;;;;;;;15.27;54.37;98573.34;5335590;26;34839;-90
2022/04/25 06:37:51;;;;;;;;;;;;;;;15.39;55.03;98574.50;5341480;26;33449;-89
2022/04/25 06:40:20;;;;;;;;;;;;;;;15.32;54.91;98573.09;5338183;26;33899;-92
2022/04/25 06:42:49;;;;;;;;;;;;;;;15.20;53.68;98582.41;5336174;26;34027;-89
2022/04/25 06:48:08;;;;;;;;;;;;;;;15.51;53.33;98584.31;5333965;26;34780;-91
2022/04/25 06:50:37;;;;;;;;;;;;;;;15.64;52.59;98584.53;5338073;26;33224;-91
2022/04/25 06:53:06;;;;;;;;;;;;;;;15.36;53.93;98583.28;5341225;26;34193;-92
2022/04/25 06:55:35;;;;;;;;;;;;;;;15.73;53.07;98584.09;5336497;26;34272;-89
2022/04/25 06:58:03;;;;;;;;;;;;;;;15.81;53.13;98585.47;5348121;26;34009;-87
2022/04/25 07:00:32;;;;;;;;;;;;;;;15.74;52.52;98584.91;5339873;26;34150;-92
2022/04/25 07:03:03;;;;;;;;;;;;;;;15.81;52.50;98593.31;5336640;26;32531;-89
2022/04/25 07:05:31;;;;;;;;;;;;;;;15.82;53.03;98592.38;5341696;26;34258;-89
2022/04/25 07:08:01;;;;;;;;;;;;;;;15.98;52.02;98596.72;5339534;26;34747;-91
2022/04/25 07:10:30;;;;;;;;;;;;;;;15.85;52.23;98602.66;5339771;26;33381;-89
2022/04/25 07:13:11;;;;;;;;;;;;;;;15.95;51.92;98601.28;5341360;26;34986;-88
2022/04/25 07:16:05;;;;;;;;;;;;;;;15.83;52.35;98594.06;5339663;26;33654;-89
2022/04/25 07:18:33;;;;;;;;;;;;;;;16.00;52.42;98602.72;5339026;26;34430;-92
2022/04/25 07:28:48;;;;;;;;;;;;;;;16.26;50.32;98610.09;5341664;26;33668;-90
2022/04/25 07:29:27;;;;;;;;;;;;;;;16.16;51.07;98605.38;5338039;26;34163;-89
2022/04/25 07:31:56;;;;;;;;;;;;;;;16.51;50.80;98597.38;5337255;26;33863;-89
2022/04/25 07:34:24;;;;;;;;;;;;;;;16.64;50.03;98600.16;5337455;26;34676;-90
2022/04/25 07:36:54;;;;;;;;;;;;;;;16.40;50.05;98597.94;5337474;26;33943;-89
2022/04/25 07:39:25;;;;;;;;;;;;;;;16.48;50.23;98594.94;5340386;26;33449;-92
2022/04/25 07:41:53;;;;;;;;;;;;;;;16.27;51.12;98607.41;5338133;26;33446;-89
2022/04/25 07:44:21;;;;;;;;;;;;;;;16.54;49.66;98606.81;5337278;26;33663;-90
2022/04/25 07:46:58;;;;;;;;;;;;;;;16.36;50.08;98614.75;5337082;26;33727;-89
2022/04/25 07:49:26;;;;;;;;;;;;;;;16.64;49.46;98611.47;5338665;26;34171;-90
2022/04/25 07:51:56;;;;;;;;;;;;;;;16.73;49.76;98611.91;5340688;26;33537;-85
2022/04/25 07:54:26;;;;;;;;;;;;;;;16.90;49.64;98613.59;5347112;26;33701;-92
2022/04/25 07:56:55;;;;;;;;;;;;;;;17.02;49.17;98616.38;5342897;26;34026;-92
2022/04/25 07:59:23;;;;;;;;;;;;;;;16.77;48.48;98621.28;5336236;26;32413;-89
2022/04/25 08:01:52;;;;;;;;;;;;;;;16.76;49.52;98624.81;5341299;26;32843;-89
2022/04/25 08:04:21;;;;;;;;;;;;;;;16.98;48.85;98625.31;5337165;26;33447;-89
2022/04/25 08:06:51;;;;;;;;;;;;;;;16.93;48.77;98621.28;5343021;26;34980;-89
2022/04/25 08:09:24;;;;;;;;;;;;;;;17.04;48.96;98619.75;5337480;26;33237;-90
2022/04/25 08:20:11;;;;;;;;;;;;;;;17.34;46.61;98612.84;5339150;26;33790;-92
2022/04/25 08:22:40;;;;;;;;;;;;;;;17.34;45.47;98618.91;5339787;26;33701;-91
2022/04/25 08:25:11;;;;;;;;;;;;;;;17.19;45.65;98617.19;5342752;26;33799;-89
2022/04/25 08:27:43;;;;;;;;;;;;;;;17.28;44.94;98614.87;5338481;26;33989;-90
2022/04/25 08:30:14;;;;;;;;;;;;;;;17.16;45.56;98614.75;5340447;26;34616;-93
2022/04/25 08:32:45;;;;;;;;;;;;;;;16.89;45.27;98625.00;5339948;26;33876;-90
2022/04/25 08:35:13;;;;;;;;;;;;;;;17.02;46.13;98624.22;5336989;26;34023;-93
2022/04/25 08:37:42;;;;;;;;;;;;;;;17.12;46.39;98626.34;5341619;26;34199;-89
2022/04/25 08:40:11;;;;;;;;;;;;;;;17.36;46.50;98632.78;5340337;26;34126;-89
2022/04/25 08:42:39;;;;;;;;;;;;;;;17.65;46.66;98623.22;5336801;26;33776;-89
2022/04/25 08:45:14;;;;;;;;;;;;;;;17.70;46.26;98630.81;5337887;26;33634;-90
2022/04/25 08:47:47;;;;;;;;;;;;;;;17.72;45.13;98639.44;5336601;26;35109;-90
2022/04/25 08:50:17;;;;;;;;;;;;;;;17.64;45.38;98641.69;5335688;26;34071;-90
2022/04/25 08:52:46;;;;;;;;;;;;;;;17.41;47.12;98632.53;5340959;26;33877;-89
2022/04/25 08:55:15;;;;;;;;;;;;;;;17.46;47.15;98636.56;5336227;26;34590;-93
2022/04/25 08:57:44;;;;;;;;;;;;;;;17.97;45.94;98644.09;5339755;26;33775;-89
2022/04/25 09:00:13;;;;;;;;;;;;;;;17.83;46.04;98646.69;5339195;26;33275;-91
2022/04/25 09:02:47;;;;;;;;;;;;;;;17.96;46.68;98645.03;5338808;26;33861;-92
2022/04/25 09:05:16;;;;;;;;;;;;;;;18.10;45.08;98649.44;5342143;26;33658;-89
2022/04/25 09:07:45;;;;;;;;;;;;;;;17.97;43.74;98645.88;5342937;26;34155;-88
2022/04/25 09:10:19;;;;;;;;;;;;;;;17.98;42.30;98655.44;5343572;26;34797;-87
2022/04/25 09:12:48;;;;;;;;;;;;;;;17.85;43.95;98656.16;5340557;26;33079;-89
2022/04/25 09:15:27;;;;;;;;;;;;;;;17.31;45.22;98655.81;5341933;26;33917;-86
2022/04/25 09:18:13;;;;;;;;;;;;;;;17.52;44.59;98655.47;5336542;26;34882;-89
2022/04/25 09:20:44;;;;;;;;;;;;;;;17.51;44.11;98653.81;5341458;26;32749;-90
2022/04/25 09:23:22;;;;;;;;;;;;;;;17.30;45.26;98658.50;5339751;26;33106;-90
2022/04/25 09:26:09;;;;;;;;;;;;;;;17.35;44.18;98653.84;5339804;26;34028;-88
2022/04/25 09:28:57;;;;;;;;;;;;;;;17.63;44.80;98664.41;5340021;26;34612;-91
2022/04/25 09:31:28;;;;;;;;;;;;;;;18.01;43.51;98660.50;5338241;26;34061;-89
2022/04/25 09:34:14;;;;;;;;;;;;;;;18.11;42.98;98678.22;5340411;26;32801;-90
2022/04/25 09:36:49;;;;;;;;;;;;;;;18.06;44.19;98671.56;5341678;26;33389;-90
2022/04/25 09:39:27;;;;;;;;;;;;;;;18.31;43.05;98673.53;5343366;26;33836;-90
2022/04/25 09:41:56;;;;;;;;;;;;;;;18.11;41.81;98677.38;5343440;26;33931;-89
2022/04/25 09:44:30;;;;;;;;;;;;;;;17.96;42.13;98676.53;5339645;26;33993;-89
2022/04/25 09:46:58;;;;;;;;;;;;;;;17.90;42.66;98676.88;5339628;26;33899;-88
2022/04/25 09:49:30;;;;;;;;;;;;;;;17.48;43.47;98675.81;5338281;26;33957;-89
2022/04/25 09:52:00;;;;;;;;;;;;;;;17.45;43.94;98684.69;5337700;26;33988;-89
2022/04/25 09:54:29;;;;;;;;;;;;;;;17.76;44.08;98687.31;5345876;26;33760;-88
2022/04/25 09:56:58;;;;;;;;;;;;;;;17.75;43.42;98686.47;5340355;26;33477;-86
2022/04/25 09:59:27;;;;;;;;;;;;;;;17.38;43.97;98682.50;5340136;26;34153;-89
2022/04/25 10:02:04;;;;;;;;;;;;;;;17.24;43.54;98691.16;5339552;26;33910;-89
2022/04/25 10:04:36;;;;;;;;;;;;;;;17.38;44.07;98685.13;5337843;26;33388;-90
2022/04/25 10:07:05;;;;;;;;;;;;;;;17.67;43.95;98688.69;5337763;26;34210;-88
2022/04/25 10:09:35;;;;;;;;;;;;;;;17.91;43.67;98694.31;5342220;26;34192;-89
2022/04/25 10:12:05;;;;;;;;;;;;;;;18.07;43.60;98695.09;5338502;26;33530;-90
2022/04/25 10:14:34;;;;;;;;;;;;;;;18.18;44.38;98688.34;5339105;26;33994;-91
2022/04/25 10:17:04;;;;;;;;;;;;;;;17.70;43.39;98699.00;5338677;26;34220;-91
2022/04/25 10:19:32;;;;;;;;;;;;;;;18.03;42.80;98684.88;5338362;26;35947;-89
2022/04/25 10:22:03;;;;;;;;;;;;;;;17.87;43.63;98696.25;5342155;26;34312;-89
2022/04/25 10:24:33;;;;;;;;;;;;;;;18.13;43.98;98701.75;5341001;26;33203;-89
2022/04/25 10:27:06;;;;;;;;;;;;;;;18.20;42.75;98689.94;5341945;26;33730;-87
2022/04/25 10:29:37;;;;;;;;;;;;;;;18.47;42.83;98694.47;5348047;26;34800;-89
2022/04/25 10:32:09;;;;;;;;;;;;;;;18.46;41.63;98695.38;5334592;26;32740;-89
2022/04/25 10:34:45;;;;;;;;;;;;;;;18.59;41.11;98695.50;5337138;26;33725;-90
2022/04/25 10:37:30;;;;;;;;;;;;;;;18.78;41.28;98703.94;5341489;26;34717;-88
2022/04/25 10:39:59;;;;;;;;;;;;;;;18.36;41.88;98710.00;5339427;26;35186;-92
2022/04/25 10:45:14;;;;;;;;;;;;;;;18.49;42.94;98708.34;5337488;26;33434;-91
2022/04/25 10:47:57;;;;;;;;;;;;;;;18.79;41.78;98713.50;5339423;26;33752;-90
2022/04/25 10:50:26;;;;;;;;;;;;;;;18.71;41.87;98718.38;5338380;26;34679;-89
2022/04/25 10:52:57;;;;;;;;;;;;;;;18.37;40.53;98720.44;5337605;26;33723;-87
2022/04/25 10:55:38;;;;;;;;;;;;;;;18.13;40.77;98718.34;5340982;26;33667;-88
2022/04/25 10:58:19;;;;;;;;;;;;;;;18.06;41.73;98729.31;5336743;26;34246;-89
2022/04/25 11:00:52;;;;;;;;;;;;;;;18.22;41.91;98730.09;5339618;26;34604;-88
2022/04/25 11:03:30;;;;;;;;;;;;;;;18.72;42.72;98720.03;5337611;26;34026;-90
2022/04/25 11:06:03;;;;;;;;;;;;;;;19.20;40.36;98725.81;5336676;26;33067;-89
2022/04/25 11:08:40;;;;;;;;;;;;;;;19.04;39.91;98731.22;5338558;26;33881;-91
2022/04/25 11:11:14;;;;;;;;;;;;;;;18.99;41.26;98743.78;5341343;26;33878;-88
2022/04/25 11:14:05;;;;;;;;;;;;;;;19.26;40.94;98735.13;5340065;26;33589;-90
2022/04/25 11:16:35;;;;;;;;;;;;;;;19.54;40.55;98734.97;5338485;26;33058;-90
2022/04/25 11:19:14;;;;;;;;;;;;;;;19.72;39.03;98742.66;5338501;26;34271;-89
2022/04/25 11:21:47;;;;;;;;;;;;;;;19.19;40.44;98753.06;5339574;26;34592;-90
2022/04/25 11:24:33;;;;;;;;;;;;;;;18.93;40.21;98747.66;5343021;26;34653;-88
2022/04/25 11:27:05;;;;;;;;;;;;;;;19.40;40.32;98750.81;5339138;26;32531;-89
2022/04/25 11:29:33;;;;;;;;;;;;;;;18.92;40.58;98753.03;5342263;26;34469;-89
2022/04/25 11:32:26;;;;;;;;;;;;;;;18.92;39.50;98759.09;5342211;26;35362;-92
2022/04/25 11:34:58;;;;;;;;;;;;;;;18.84;39.65;98753.47;5343658;26;34152;-89
2022/04/25 11:37:28;;;;;;;;;;;;;;;19.02;40.42;98750.66;5339278;26;32964;-89
2022/04/25 11:40:02;;;;;;;;;;;;;;;18.94;40.43;98765.13;5341014;26;34191;-89
2022/04/25 11:42:31;;;;;;;;;;;;;;;19.07;40.39;98764.34;5338361;26;32932;-89
2022/04/25 11:45:01;;;;;;;;;;;;;;;19.37;39.05;98764.16;5341704;26;33576;-88
2022/04/25 11:47:30;;;;;;;;;;;;;;;19.40;39.51;98775.34;5342690;26;34685;-89
2022/04/25 11:50:00;;;;;;;;;;;;;;;19.59;37.72;98766.25;5338119;26;33943;-91
2022/04/25 11:52:28;;;;;;;;;;;;;;;19.56;38.89;98769.94;5337128;26;34301;-87
2022/04/25 11:54:57;;;;;;;;;;;;;;;19.58;39.37;98773.31;5336355;26;34470;-89
2022/04/25 11:57:27;;;;;;;;;;;;;;;19.67;38.13;98786.81;5335838;26;33567;-91
2022/04/25 12:00:08;;;;;;;;;;;;;;;19.85;38.41;98790.06;5340623;26;33931;-88
2022/04/25 12:02:39;;;;;;;;;;;;;;;19.77;38.82;98785.31;5336456;26;34461;-90
2022/04/25 12:05:09;;;;;;;;;;;;;;;19.33;37.96;98786.34;5337731;26;34653;-88
2022/04/25 12:07:38;;;;;;;;;;;;;;;18.84;38.64;98781.53;5340888;26;32954;-88
2022/04/25 12:15:42;;;;;;;;;;;;;;;19.16;38.18;98782.16;5341156;26;34929;-87
2022/04/25 12:18:12;;;;;;;;;;;;;;;19.50;38.10;98791.41;5341796;26;33119;-88
2022/04/25 12:20:42;;;;;;;;;;;;;;;19.18;37.22;98780.28;5339937;26;34149;-88
2022/04/25 12:23:11;;;;;;;;;;;;;;;19.45;36.09;98780.31;5337783;26;33670;-89
2022/04/25 12:25:40;;;;;;;;;;;;;;;19.71;36.55;98789.16;5338828;26;34954;-88
2022/04/25 12:28:16;;;;;;;;;;;;;;;19.86;35.91;98783.84;5337939;26;33700;-88
2022/04/25 12:30:49;;;;;;;;;;;;;;;19.94;36.05;98784.22;5343081;26;34093;-89
2022/04/25 12:33:19;;;;;;;;;;;;;;;19.82;36.75;98785.84;5339991;26;33930;-88
2022/04/25 12:35:48;;;;;;;;;;;;;;;20.07;36.79;98784.22;5337975;26;33719;-90
2022/04/25 12:38:35;;;;;;;;;;;;;;;20.19;35.53;98786.88;5337994;26;33396;-91
2022/04/25 12:41:04;;;;;;;;;;;;;;;19.88;35.92;98795.13;5336870;26;34636;-87
2022/04/25 12:43:44;;;;;;;;;;;;;;;19.56;35.80;98787.50;5339140;26;34516;-90
2022/04/25 12:46:13;;;;;;;;;;;;;;;19.81;37.17;98781.50;5342300;26;34556;-87
2022/04/25 12:49:01;;;;;;;;;;;;;;;20.13;35.52;98791.72;5338826;26;32265;-87
2022/04/25 12:51:31;;;;;;;;;;;;;;;20.37;35.69;98795.34;5339244;26;33664;-86
2022/04/25 12:54:00;;;;;;;;;;;;;;;20.85;34.22;98790.31;5338912;26;34257;-87
2022/04/25 12:56:29;;;;;;;;;;;;;;;20.68;34.18;98803.78;5338568;26;34208;-86
2022/04/25 12:59:00;;;;;;;;;;;;;;;20.77;34.44;98791.78;5337738;26;32383;-87
2022/04/25 13:01:29;;;;;;;;;;;;;;;19.96;34.85;98798.94;5340607;26;34434;-86
2022/04/25 13:04:04;;;;;;;;;;;;;;;20.34;34.65;98807.84;5337305;26;35345;-87
2022/04/25 13:06:35;;;;;;;;;;;;;;;20.39;35.24;98809.25;5338170;26;34103;-86
2022/04/25 13:09:04;;;;;;;;;;;;;;;20.71;34.82;98811.50;5338599;26;32731;-86
2022/04/25 13:11:52;;;;;;;;;;;;;;;21.10;33.35;98807.03;5339404;26;34114;-86
2022/04/25 13:14:22;;;;;;;;;;;;;;;20.43;34.44;98810.72;5339178;26;33878;-86
2022/04/25 13:16:50;;;;;;;;;;;;;;;20.37;33.52;98805.00;5340859;26;34657;-88
2022/04/25 13:19:19;;;;;;;;;;;;;;;20.16;34.08;98797.63;5338905;26;34056;-88
2022/04/25 13:21:47;;;;;;;;;;;;;;;20.52;34.48;98798.72;5339076;26;34431;-86
2022/04/25 13:24:16;;;;;;;;;;;;;;;20.96;32.72;98809.81;5337395;26;35052;-88
2022/04/25 13:26:45;;;;;;;;;;;;;;;20.62;32.33;98801.59;5338294;26;33920;-88
2022/04/25 13:29:14;;;;;;;;;;;;;;;20.16;33.54;98807.31;5340485;26;33038;-87
2022/04/25 13:31:44;;;;;;;;;;;;;;;20.09;34.32;98803.41;5337319;26;33385;-87
2022/04/25 13:34:12;;;;;;;;;;;;;;;19.91;34.36;98806.31;5335793;26;36009;-87
2022/04/25 13:36:41;;;;;;;;;;;;;;;20.21;34.44;98803.41;5338102;26;33917;-88
2022/04/25 13:39:09;;;;;;;;;;;;;;;20.17;34.85;98806.34;5339065;26;33631;-87
2022/04/25 13:41:38;;;;;;;;;;;;;;;20.11;34.75;98805.00;5341662;26;34151;-87
2022/04/25 13:44:07;;;;;;;;;;;;;;;20.28;35.06;98816.19;5349696;26;34496;-86